Time;durP1;ratioP1;P1;durP2;ratioP2;P2;SDS_P1;SDS_P2;PMS_P1;PMS_P2;Temp;Humidity;BMP_temperature;BMP_pressure;BME280_temperature;BME280_humidity;BME280_pressure;Samples;Min_cycle;Max_cycle;Signal;HPM_P1;HPM_P2
2022/06/16 00:02:32;;;;;;;19.17;11.50;;;;;;;17.25;71.24;100668.06;4972959;28;20041;-74
2022/06/16 00:05:44;;;;;;;21.42;13.63;;;;;;;17.06;72.39;100663.38;4972448;28;20058;-74
2022/06/16 00:08:53;;;;;;;9.88;5.65;;;;;;;17.05;72.32;100654.63;4972094;28;20073;-74
2022/06/16 00:12:02;;;;;;;6.72;3.75;;;;;;;16.94;72.20;100652.81;4973266;28;20057;-74
2022/06/16 00:15:16;;;;;;;11.40;7.80;;;;;;;16.81;72.40;100656.50;4974455;28;20050;-74
2022/06/16 00:18:26;;;;;;;9.15;5.15;;;;;;;16.86;72.25;100649.06;4992329;28;20096;-74
2022/06/16 00:21:35;;;;;;;6.80;3.78;;;;;;;16.90;71.66;100656.63;4991572;28;20049;-74
2022/06/16 00:24:43;;;;;;;10.60;6.85;;;;;;;16.77;72.02;100663.81;4972276;28;20521;-74
2022/06/16 00:27:54;;;;;;;6.05;3.45;;;;;;;16.80;71.54;100658.28;4971778;28;20101;-74
2022/06/16 00:31:06;;;;;;;9.52;3.80;;;;;;;16.76;71.63;100654.22;4971802;28;20125;-74
2022/06/16 00:34:15;;;;;;;8.48;5.60;;;;;;;16.63;72.33;100658.72;4987832;28;20057;-74
2022/06/16 01:01:22;;;;;;;7.63;4.70;;;;;;;16.23;74.32;100662.50;4970020;28;20070;-74
2022/06/16 01:14:38;;;;;;;;;;;;;;;16.06;74.88;100680.53;4991931;28;20085;-74
2022/06/16 01:18:44;;;;;;;7.00;4.97;;;;;;;16.14;74.71;100686.09;4990557;28;19945;-74
2022/06/16 02:19:30;;;;;;;8.35;3.90;;;;;;;15.53;76.99;100697.41;4873227;29;20607;-74
2022/06/16 03:04:23;;;;;;;;;;;;;;;;;;;;;
2022/06/16 03:51:07;;;;;;;6.28;3.40;;;;;;;15.12;78.98;100752.94;4866169;29;20477;-74
2022/06/16 03:54:17;;;;;;;6.75;3.65;;;;;;;15.24;78.58;100777.63;4950516;28;20053;-74
2022/06/16 04:02:14;;;;;;;6.57;3.20;;;;;;;15.39;77.54;100781.84;4951187;29;20121;-74
2022/06/16 05:11:35;;;;;;;7.57;3.35;;;;;;;15.78;75.91;100811.72;4950595;28;20515;-74
2022/06/16 05:46:47;;;;;;;5.30;3.38;;;;;;;16.31;75.20;100849.31;4932533;28;20090;-75
2022/06/16 05:56:38;;;;;;;4.85;3.00;;;;;;;16.74;73.40;100873.44;4929755;29;20345;-74
2022/06/16 06:35:26;;;;;;;4.15;2.80;;;;;;;17.81;71.37;100869.94;4973082;28;20125;-80
2022/06/16 06:39:35;;;;;;;6.30;3.00;;;;;;;17.98;70.59;100879.19;4969375;28;20406;-80
2022/06/16 06:54:13;;;;;;;10.18;2.97;;;;;;;18.47;69.41;100888.56;4929755;29;20107;-80
2022/06/16 07:22:41;;;;;;;7.95;2.85;;;;;;;19.66;56.77;100909.78;4934346;29;20043;-80
2022/06/16 07:25:49;;;;;;;7.15;2.70;;;;;;;19.66;56.46;100915.09;4971004;28;20551;-80
2022/06/16 07:50:39;;;;;;;5.25;2.30;;;;;;;20.13;54.01;100920.81;4956227;28;20050;-76
2022/06/16 08:41:11;;;;;;;7.20;2.30;;;;;;;21.24;51.91;100934.97;4954142;28;20058;-78
2022/06/16 09:36:19;;;;;;;10.93;2.35;;;;;;;;;;4964085;28;20181;-77
2022/06/16 09:39:34;;;;;;;8.73;2.15;;;;;;;22.37;45.28;100968.94;4977242;28;20550;-77
2022/06/16 09:43:41;;;;;;;5.40;1.60;;;;;;;22.51;44.20;100961.28;4968516;28;20116;-77
2022/06/16 09:46:55;;;;;;;7.03;2.03;;;;;;;22.62;44.51;100970.06;4904440;28;20129;-78
2022/06/16 09:50:31;;;;;;;6.63;2.42;;;;;;;22.82;43.22;100968.16;4972627;28;20108;-76
2022/06/16 09:53:59;;;;;;;9.52;1.88;;;;;;;22.82;42.38;100971.66;4973868;28;20109;-77
2022/06/16 09:57:23;;;;;;;8.77;2.15;;;;;;;23.08;42.78;100976.31;4980546;28;20092;-77
2022/06/16 10:00:34;;;;;;;5.15;2.17;;;;;;;22.90;38.74;100982.41;4980730;28;20064;-77
2022/06/16 10:04:08;;;;;;;4.13;1.65;;;;;;;23.12;39.06;100993.69;4972802;28;20057;-77
2022/06/16 10:07:48;;;;;;;3.95;1.38;;;;;;;23.05;38.81;100988.13;4954919;28;20041;-77
2022/06/16 10:11:18;;;;;;;3.80;1.70;;;;;;;23.15;40.93;100993.38;4972167;28;20045;-77
2022/06/16 10:14:35;;;;;;;5.60;1.73;;;;;;;23.48;37.29;101009.72;4972091;28;20161;-78
2022/06/16 10:17:46;;;;;;;3.20;1.55;;;;;;;23.28;37.56;100999.19;4972637;28;20112;-77
2022/06/16 10:20:54;;;;;;;3.50;1.50;;;;;;;23.29;38.99;101011.53;4631052;28;9999859;-77
2022/06/16 10:24:06;;;;;;;7.47;1.67;;;;;;;23.27;38.59;101013.53;4973163;28;20054;-76
2022/06/16 10:27:18;;;;;;;6.35;1.70;;;;;;;23.45;39.73;101016.19;4971664;28;20564;-78
2022/06/16 10:30:41;;;;;;;3.55;1.40;;;;;;;23.33;36.15;101018.25;4974047;28;20053;-77
2022/06/16 10:33:57;;;;;;;5.68;2.05;;;;;;;23.44;34.83;101030.53;4992506;28;20072;-76
2022/06/16 10:37:32;;;;;;;5.25;1.90;;;;;;;23.29;36.61;101027.53;4994285;28;20077;-78
2022/06/16 10:40:46;;;;;;;6.35;1.55;;;;;;;23.49;36.03;101033.59;4996329;28;20049;-76
2022/06/16 10:44:03;;;;;;;4.57;1.40;;;;;;;23.61;35.10;101027.03;4992494;28;20069;-77
2022/06/16 10:47:21;;;;;;;4.63;1.40;;;;;;;23.76;36.66;101031.88;4990826;28;20109;-78
2022/06/16 10:51:19;;;;;;;3.90;1.45;;;;;;;23.88;38.41;101028.81;4974970;28;20101;-77
2022/06/16 10:54:46;;;;;;;6.10;1.58;;;;;;;23.88;35.68;101039.47;4994746;28;20076;-78
2022/06/16 11:22:59;;;;;;;8.20;1.50;;;;;;;24.00;33.00;101039.25;4953197;29;20131;-81
2022/06/16 11:26:29;;;;;;;4.30;1.48;;;;;;;23.96;34.19;101049.38;4929518;29;20105;-81
2022/06/16 11:29:39;;;;;;;3.88;1.30;;;;;;;23.77;35.11;101039.75;4970593;28;20478;-81
2022/06/16 11:32:50;;;;;;;8.50;1.83;;;;;;;24.03;34.67;101033.59;4952534;28;20506;-81
2022/06/16 11:36:00;;;;;;;4.70;1.40;;;;;;;24.03;34.77;101042.44;4941761;29;20042;-81
2022/06/16 11:39:08;;;;;;;3.70;1.35;;;;;;;24.03;34.67;101046.97;4953527;28;20054;-81
2022/06/16 11:42:28;;;;;;;4.35;0.98;;;;;;;24.16;34.24;101039.38;4610823;29;10000738;-82
2022/06/16 11:45:58;;;;;;;;;;;;;;;24.21;35.51;101039.72;4952499;28;20054;-81
2022/06/16 11:49:23;;;;;;;5.60;1.65;;;;;;;24.31;34.47;101040.50;4951045;29;20264;-82
2022/06/16 11:53:03;;;;;;;6.13;1.50;;;;;;;24.10;34.69;101045.34;4951434;29;20170;-81
2022/06/16 11:56:42;;;;;;;3.63;1.00;;;;;;;24.29;35.58;101034.44;4951928;29;20049;-80
2022/06/16 12:21:06;;;;;;;4.00;1.42;;;;;;;24.19;35.08;101033.72;5020378;23;20286;-63
2022/06/16 12:24:26;;;;;;;3.80;1.20;;;;;;;24.41;34.07;101028.81;5009103;28;20153;-62
2022/06/16 12:27:40;;;;;;;3.35;1.10;;;;;;;24.70;34.82;101021.34;5008531;28;20048;-63
2022/06/16 12:30:43;;;;;;;8.70;1.38;;;;;;;24.78;32.54;101026.72;4989268;28;20111;-63
2022/06/16 12:33:52;;;;;;;4.43;1.17;;;;;;;24.70;30.50;101031.22;4989029;28;20226;-63
2022/06/16 12:37:03;;;;;;;4.20;1.58;;;;;;;24.90;31.09;101029.13;4989766;28;20057;-63
2022/06/16 12:40:16;;;;;;;3.65;1.10;;;;;;;24.89;30.97;101025.59;4995043;28;20153;-63
2022/06/16 12:43:34;;;;;;;3.65;1.30;;;;;;;24.86;30.57;101025.09;5008406;28;20060;-65
2022/06/16 12:46:42;;;;;;;4.38;1.38;;;;;;;25.10;30.33;101030.50;5008832;28;20064;-64
2022/06/16 12:49:56;;;;;;;7.75;1.10;;;;;;;25.42;29.87;101036.97;5008150;28;20112;-64
2022/06/16 12:53:28;;;;;;;2.70;1.15;;;;;;;25.83;29.31;101042.41;5008785;28;20052;-70
2022/06/16 12:56:49;;;;;;;2.70;0.95;;;;;;;26.19;28.37;101042.88;5010158;28;20052;-72
2022/06/16 13:00:13;;;;;;;3.17;1.08;;;;;;;26.12;26.24;101034.69;5008618;28;20053;-70
2022/06/16 13:03:26;;;;;;;3.40;1.05;;;;;;;26.14;27.21;101040.72;5011027;28;20100;-71
2022/06/16 13:06:31;;;;;;;;;;;;;;;26.08;27.21;101046.75;5011465;28;20446;-70
2022/06/16 13:09:38;;;;;;;3.72;0.70;;;;;;;26.25;26.80;101034.16;4990767;28;19964;-71
2022/06/16 13:12:54;;;;;;;6.07;1.27;;;;;;;26.06;26.26;101048.75;4990644;28;20054;-72
2022/06/16 13:16:05;;;;;;;3.05;0.85;;;;;;;26.50;26.76;101042.19;4991284;28;20045;-70
2022/06/16 13:19:22;;;;;;;3.65;0.90;;;;;;;26.23;26.41;101040.69;4991914;28;20096;-70
2022/06/16 13:22:44;;;;;;;2.70;0.90;;;;;;;26.43;26.91;101050.91;4971653;28;20041;-70
2022/06/16 13:25:54;;;;;;;3.25;1.00;;;;;;;26.76;25.84;101033.91;4952766;28;20516;-70
2022/06/16 13:29:15;;;;;;;3.92;0.90;;;;;;;26.72;24.70;101046.81;4951641;28;20114;-69
2022/06/16 13:32:21;;;;;;;3.10;0.80;;;;;;;26.27;23.98;101044.72;4951891;29;20047;-70
2022/06/16 13:35:32;;;;;;;3.13;0.93;;;;;;;26.79;25.56;101038.91;4967891;28;20073;-70
2022/06/16 13:38:40;;;;;;;2.97;1.50;;;;;;;26.89;24.75;101047.59;4969555;28;20102;-71
2022/06/16 13:41:45;;;;;;;11.98;1.00;;;;;;;27.64;24.10;101054.25;4971129;28;20050;-74
2022/06/16 13:45:10;;;;;;;4.38;0.90;;;;;;;27.85;23.03;101059.81;4970928;28;20125;-73
2022/06/16 13:48:37;;;;;;;1.88;0.60;;;;;;;27.67;21.94;101062.78;4971341;28;20130;-73
2022/06/16 13:51:42;;;;;;;2.65;0.90;;;;;;;27.23;22.41;101047.28;4970436;28;20058;-73
2022/06/16 13:54:46;;;;;;;2.03;0.55;;;;;;;27.63;21.39;101047.19;4932453;29;20074;-78
2022/06/16 13:58:14;;;;;;;2.15;1.05;;;;;;;28.40;20.68;101049.75;4920719;29;20095;-77
2022/06/16 14:01:27;;;;;;;2.50;0.57;;;;;;;28.70;20.34;101046.06;4932211;29;20102;-74
2022/06/16 14:04:31;;;;;;;3.25;0.85;;;;;;;29.20;19.89;101052.53;4920492;29;20072;-71
2022/06/16 14:07:51;;;;;;;3.20;0.95;;;;;;;29.25;21.74;101045.72;4949805;28;20604;-72
2022/06/16 14:11:16;;;;;;;3.40;0.90;;;;;;;29.39;20.89;101064.56;4970492;28;20073;-73
2022/06/16 14:14:20;;;;;;;2.88;1.00;;;;;;;29.39;21.12;101056.47;4969816;28;20424;-72
2022/06/16 14:17:42;;;;;;;2.22;1.02;;;;;;;32.68;18.43;101048.56;4970517;28;20559;-73
2022/06/16 14:20:50;;;;;;;3.22;1.20;;;;;;;35.95;14.83;101051.44;4977849;28;20128;-72
2022/06/16 14:24:01;;;;;;;2.85;0.85;;;;;;;36.00;14.25;101037.13;4970049;28;20056;-72
2022/06/16 14:27:12;;;;;;;3.63;1.05;;;;;;;37.16;12.54;101040.75;4969971;28;20101;-74
2022/06/16 14:30:21;;;;;;;2.03;0.77;;;;;;;35.30;13.16;101049.50;4969640;28;20061;-76
2022/06/16 14:33:28;;;;;;;2.22;0.93;;;;;;;34.26;13.88;101049.44;4969403;28;20126;-76
2022/06/16 14:36:44;;;;;;;2.90;1.13;;;;;;;33.70;15.21;101044.09;4980919;28;20100;-76
2022/06/16 14:40:19;;;;;;;2.55;0.88;;;;;;;33.67;15.11;101055.38;4989790;28;20069;-76
2022/06/16 14:43:30;;;;;;;3.78;1.00;;;;;;;37.16;12.82;101061.72;4989359;28;20049;-75
2022/06/16 14:46:48;;;;;;;2.28;0.90;;;;;;;35.48;13.02;101058.66;4988281;28;20526;-75
2022/06/16 14:50:03;;;;;;;5.65;1.00;;;;;;;37.32;12.98;101071.84;4988674;28;20189;-76
2022/06/16 14:53:41;;;;;;;3.35;1.08;;;;;;;36.96;12.78;101045.78;4989587;28;20064;-76
2022/06/16 14:56:56;;;;;;;2.63;1.02;;;;;;;38.55;11.60;101041.91;4989601;28;20050;-76
2022/06/16 15:00:00;;;;;;;4.20;1.35;;;;;;;34.92;14.28;101064.19;4989562;28;20044;-76
2022/06/16 15:03:09;;;;;;;2.85;0.95;;;;;;;33.91;16.58;101054.53;4989063;28;20045;-75
2022/06/16 15:06:14;;;;;;;2.67;0.90;;;;;;;34.86;15.67;101065.09;4989515;28;20053;-76
2022/06/16 15:09:28;;;;;;;6.50;1.13;;;;;;;35.98;14.95;101063.75;4989171;28;20562;-76
2022/06/16 15:20:14;;;;;;;2.00;0.80;;;;;;;34.85;14.54;101063.47;4986597;28;20058;-75
2022/06/16 15:23:20;;;;;;;3.38;0.90;;;;;;;34.59;14.46;101053.75;4988595;28;20112;-75
2022/06/16 15:26:28;;;;;;;2.50;1.00;;;;;;;36.81;13.54;101064.56;4988521;28;20092;-76
2022/06/16 15:29:41;;;;;;;1.95;0.80;;;;;;;33.93;13.77;101057.88;4988330;28;20092;-75
2022/06/16 15:36:14;;;;;;;2.53;0.75;;;;;;;33.78;14.77;101052.75;4989443;28;20126;-76
2022/06/16 15:39:22;;;;;;;1.88;0.70;;;;;;;34.78;13.75;101061.88;4988832;28;20092;-76
2022/06/16 15:42:26;;;;;;;2.03;0.82;;;;;;;33.20;15.33;101041.25;4989418;28;20114;-76
2022/06/16 15:45:30;;;;;;;2.40;0.60;;;;;;;34.84;14.41;101050.91;4989227;28;20049;-75
2022/06/16 15:48:37;;;;;;;5.38;1.13;;;;;;;35.40;13.32;101047.06;4987858;28;20506;-76
2022/06/16 15:51:43;;;;;;;3.78;1.00;;;;;;;35.50;14.09;101042.94;4988997;28;20100;-76
2022/06/16 15:54:50;;;;;;;3.10;1.10;;;;;;;33.76;15.87;101043.19;4988923;28;20439;-76
2022/06/16 15:58:01;;;;;;;3.85;1.00;;;;;;;32.59;16.21;101048.78;4988636;28;20570;-76
2022/06/16 16:01:06;;;;;;;5.35;1.00;;;;;;;29.86;18.92;101062.31;4988351;28;20049;-76
2022/06/16 16:04:12;;;;;;;2.55;1.23;;;;;;;28.97;19.88;101068.78;4987140;28;20100;-75
2022/06/16 16:07:17;;;;;;;5.45;1.17;;;;;;;30.00;19.61;101061.44;4988144;28;20562;-75
2022/06/16 16:10:23;;;;;;;3.78;0.80;;;;;;;29.20;19.80;101063.31;4988659;28;20112;-76
2022/06/16 16:13:27;;;;;;;2.17;0.70;;;;;;;29.59;20.43;101055.84;4988598;28;20115;-76
2022/06/16 16:16:33;;;;;;;4.32;0.95;;;;;;;29.97;20.26;101051.03;4988495;28;20479;-75
2022/06/16 16:20:09;;;;;;;2.35;0.75;;;;;;;28.72;20.59;101062.88;4988054;28;20088;-75
2022/06/16 16:24:08;;;;;;;5.78;0.93;;;;;;;28.63;21.24;101076.59;4969270;28;20101;-74
2022/06/16 16:27:25;;;;;;;4.70;0.80;;;;;;;27.95;22.14;101064.94;4990942;28;20053;-75
2022/06/16 16:30:39;;;;;;;3.45;0.65;;;;;;;28.44;21.74;101077.97;4982536;28;20120;-74
2022/06/16 16:33:44;;;;;;;2.70;0.80;;;;;;;28.05;22.21;101079.00;4972441;28;20078;-75
2022/06/16 16:36:50;;;;;;;3.53;0.90;;;;;;;27.42;22.87;101072.03;4972220;28;20046;-74
2022/06/16 16:44:33;;;;;;;3.30;0.88;;;;;;;27.06;23.06;101099.38;4977603;28;20416;-74
2022/06/16 16:48:05;;;;;;;1.95;0.70;;;;;;;26.64;23.21;101095.97;4990437;28;20057;-75
2022/06/16 16:51:15;;;;;;;2.90;0.70;;;;;;;27.31;23.64;101103.66;4990726;28;20053;-76
2022/06/16 16:54:18;;;;;;;4.65;1.02;;;;;;;27.20;24.37;101108.56;4991737;28;20053;-76
2022/06/16 16:57:22;;;;;;;3.15;0.63;;;;;;;26.88;23.75;101107.63;4991866;28;20053;-75
2022/06/16 17:00:26;;;;;;;4.53;0.82;;;;;;;26.69;24.88;101089.25;4951554;28;20131;-75
2022/06/16 17:03:30;;;;;;;2.72;0.80;;;;;;;26.72;24.50;101091.59;4951858;28;20612;-76
2022/06/16 17:06:33;;;;;;;7.13;1.13;;;;;;;26.70;25.12;101094.44;4952154;28;20050;-76
2022/06/16 17:09:37;;;;;;;3.47;0.68;;;;;;;26.48;24.63;101084.41;4951716;28;20140;-76
2022/06/16 17:12:44;;;;;;;1.80;0.65;;;;;;;26.67;24.73;101087.59;4955497;28;20497;-75
2022/06/16 17:15:48;;;;;;;3.63;0.70;;;;;;;26.70;25.07;101094.44;4972680;28;20074;-75
2022/06/16 17:18:54;;;;;;;1.98;0.68;;;;;;;26.87;24.82;101105.97;4971811;28;20101;-75
2022/06/16 17:21:59;;;;;;;3.38;1.10;;;;;;;26.33;24.54;101097.69;4972038;28;20057;-75
2022/06/16 17:25:08;;;;;;;2.92;0.85;;;;;;;25.96;25.47;101101.69;4971620;28;20050;-75
2022/06/16 17:28:11;;;;;;;1.83;0.55;;;;;;;25.50;26.90;101102.09;4971374;28;20089;-75
2022/06/16 17:31:14;;;;;;;2.33;0.50;;;;;;;25.96;26.12;101097.16;4971127;28;20094;-76
2022/06/16 17:34:30;;;;;;;3.30;1.40;;;;;;;26.19;26.45;101085.78;4971322;28;20048;-76
2022/06/16 17:37:39;;;;;;;6.43;0.70;;;;;;;26.16;27.27;101089.66;4970256;28;20093;-76
2022/06/16 17:40:44;;;;;;;3.20;0.90;;;;;;;25.77;27.57;101091.25;4970036;28;20570;-76
2022/06/16 17:43:49;;;;;;;4.80;0.68;;;;;;;25.48;29.08;101092.53;4970570;28;20415;-77
2022/06/16 17:46:53;;;;;;;2.72;0.70;;;;;;;25.19;30.54;101088.44;4971475;28;20055;-76
2022/06/16 17:49:56;;;;;;;2.70;1.00;;;;;;;25.20;30.02;101087.44;4971140;28;20093;-75
2022/06/16 17:59:43;;;;;;;4.35;0.70;;;;;;;25.38;29.68;101110.59;4970081;28;20088;-75
2022/06/16 18:02:47;;;;;;;2.47;0.63;;;;;;;25.01;30.32;101112.56;4968659;28;20045;-75
2022/06/16 18:05:50;;;;;;;2.47;0.68;;;;;;;24.70;30.54;101120.28;4974476;28;20037;-77
2022/06/16 18:08:57;;;;;;;1.38;0.50;;;;;;;24.65;31.48;101121.75;4987072;28;20065;-77
2022/06/16 18:16:13;;;;;;;5.28;0.60;;;;;;;24.48;32.50;101121.66;4970635;28;20049;-76
2022/06/16 18:19:16;;;;;;;1.60;0.45;;;;;;;24.33;32.24;101112.47;4958340;28;20633;-76
2022/06/16 18:22:19;;;;;;;1.98;0.50;;;;;;;24.30;32.63;101118.97;4972074;28;20562;-76
2022/06/16 18:25:37;;;;;;;4.03;0.77;;;;;;;24.29;32.79;101117.28;4989272;28;20045;-77
2022/06/16 18:28:40;;;;;;;12.48;6.18;;;;;;;24.42;32.97;101126.78;4989234;28;20045;-76
2022/06/16 18:31:44;;;;;;;6.78;3.97;;;;;;;24.41;33.36;101131.28;4988940;28;20057;-76
2022/06/16 18:34:50;;;;;;;6.93;1.70;;;;;;;23.99;33.98;101126.53;4989162;28;20041;-76
2022/06/16 18:37:58;;;;;;;4.20;1.52;;;;;;;23.99;34.05;101131.03;4976411;28;20515;-76
2022/06/16 18:41:03;;;;;;;9.10;2.47;;;;;;;23.97;35.78;101125.03;4970596;28;20464;-76
2022/06/16 18:44:09;;;;;;;5.32;1.88;;;;;;;23.52;38.73;101129.38;4970674;28;20049;-76
2022/06/16 18:47:16;;;;;;;4.90;1.13;;;;;;;23.36;39.29;101129.19;4969636;28;20066;-76
2022/06/16 18:50:20;;;;;;;2.88;0.98;;;;;;;23.51;38.13;101134.84;4970311;28;20134;-76
2022/06/16 18:53:27;;;;;;;4.32;2.15;;;;;;;23.42;38.03;101137.44;4950386;28;20050;-76
2022/06/16 18:56:30;;;;;;;3.58;0.82;;;;;;;23.04;41.65;101146.47;4950178;28;20094;-76
2022/06/16 18:59:33;;;;;;;6.25;1.42;;;;;;;23.18;39.77;101137.97;4950349;28;20159;-77
2022/06/16 19:02:39;;;;;;;8.48;2.17;;;;;;;23.03;40.02;101149.28;4950229;28;20092;-77
2022/06/16 19:05:45;;;;;;;4.50;1.15;;;;;;;22.84;40.15;101145.63;4957938;28;20101;-78
2022/06/16 19:08:48;;;;;;;3.08;1.10;;;;;;;23.13;39.27;101142.94;4957985;28;20049;-71
2022/06/16 19:12:24;;;;;;;4.78;1.00;;;;;;;22.80;38.56;101151.41;4950966;29;20461;-70
2022/06/16 19:15:24;;;;;;;4.75;0.95;;;;;;;22.51;39.13;101160.31;4950102;29;20111;-71
2022/06/16 19:18:32;;;;;;;5.13;1.10;;;;;;;22.56;39.39;101171.41;4949909;29;20046;-72
2022/06/16 19:21:37;;;;;;;3.17;0.80;;;;;;;22.23;39.86;101184.16;4949623;28;20425;-72
2022/06/16 19:24:43;;;;;;;3.65;1.42;;;;;;;22.32;39.72;101187.81;4948955;28;20093;-71
2022/06/16 19:27:47;;;;;;;4.05;1.50;;;;;;;22.37;41.49;101196.22;4950761;28;20520;-70
2022/06/16 19:31:01;;;;;;;4.25;0.80;;;;;;;22.22;40.97;101202.94;4950028;28;20046;-69
2022/06/16 19:34:05;;;;;;;4.07;1.10;;;;;;;22.22;40.77;101209.13;4960259;28;20099;-71
2022/06/16 19:37:10;;;;;;;2.78;0.90;;;;;;;22.05;41.57;101218.59;4988357;28;20096;-71
2022/06/16 19:40:15;;;;;;;3.90;0.90;;;;;;;21.96;41.72;101229.25;4988160;28;20424;-70
2022/06/16 19:50:47;;;;;;;4.30;1.30;;;;;;;21.70;43.03;101240.38;4985910;28;20073;-70
2022/06/16 19:53:37;;;;;;;2.92;0.80;;;;;;;21.28;43.67;101261.72;4968776;28;20065;-71
2022/06/16 19:56:52;;;;;;;2.92;0.90;;;;;;;21.32;44.30;101267.63;4968893;28;20555;-70
2022/06/16 19:59:55;;;;;;;4.35;1.15;;;;;;;20.94;44.44;101262.91;4980667;28;20037;-71
2022/06/16 20:21:56;;;;;;;5.10;1.60;;;;;;;19.95;54.36;101296.63;5009872;28;20137;-73
2022/06/16 20:25:00;;;;;;;4.45;1.67;;;;;;;19.79;54.11;101282.91;5010977;28;20462;-73
2022/06/16 20:28:04;;;;;;;5.45;1.27;;;;;;;19.70;53.03;101282.66;5011328;28;20190;-75
2022/06/16 20:31:09;;;;;;;2.90;1.30;;;;;;;19.56;53.04;101300.56;5002934;28;20096;-75
2022/06/16 20:34:16;;;;;;;4.03;2.30;;;;;;;19.45;53.47;101301.41;5006655;28;20127;-74
2022/06/16 20:37:20;;;;;;;5.15;2.40;;;;;;;19.49;53.50;101300.19;5011134;28;20080;-74
2022/06/16 20:40:25;;;;;;;4.95;2.28;;;;;;;19.73;52.17;101305.44;5008533;28;20549;-75
2022/06/16 20:43:33;;;;;;;6.28;2.38;;;;;;;19.40;53.04;101317.69;5011062;28;20061;-74
2022/06/16 20:46:41;;;;;;;4.95;1.70;;;;;;;19.66;50.63;101317.50;4993721;28;20060;-75
2022/06/16 20:49:50;;;;;;;6.45;3.05;;;;;;;19.40;52.88;101330.09;5001385;28;20601;-75
2022/06/16 20:52:54;;;;;;;11.07;3.30;;;;;;;19.04;54.56;101335.41;5009650;28;20052;-75
2022/06/16 20:55:57;;;;;;;4.55;2.10;;;;;;;18.90;54.76;101327.66;4991276;28;20044;-75
2022/06/16 21:02:23;;;;;;;4.40;1.85;;;;;;;18.84;55.07;101340.53;4991337;28;20092;-79
2022/06/16 21:05:34;;;;;;;2.25;1.20;;;;;;;18.55;57.18;101340.84;5000124;28;20462;-74
2022/06/16 21:08:37;;;;;;;4.07;1.15;;;;;;;18.50;57.92;101342.94;5008382;28;20052;-73
2022/06/16 21:15:04;;;;;;;3.67;1.00;;;;;;;18.32;57.45;101353.94;4992045;28;20103;-76
2022/06/16 21:18:20;;;;;;;3.83;1.13;;;;;;;18.14;57.75;101352.59;4987790;28;20403;-75
2022/06/16 21:21:23;;;;;;;6.00;1.15;;;;;;;17.92;57.83;101352.41;4987512;28;20598;-75
2022/06/16 21:24:27;;;;;;;2.20;0.90;;;;;;;17.95;58.08;101368.06;4988167;28;20092;-75
2022/06/16 21:27:31;;;;;;;6.93;1.13;;;;;;;17.82;58.60;101350.41;4987324;28;20085;-75
2022/06/16 21:30:35;;;;;;;5.32;1.17;;;;;;;18.01;57.89;101346.47;4987687;28;20046;-75
2022/06/16 21:33:43;;;;;;;2.38;1.00;;;;;;;17.94;57.69;101345.22;4987614;28;20049;-74
2022/06/16 21:36:47;;;;;;;3.80;1.13;;;;;;;17.73;58.25;101340.41;4987392;28;20048;-75
2022/06/16 21:39:51;;;;;;;3.45;1.10;;;;;;;17.71;58.78;101346.75;4987543;28;20526;-76
2022/06/16 21:42:54;;;;;;;5.30;1.10;;;;;;;17.59;59.31;101367.00;4987181;28;20134;-76
2022/06/16 21:45:57;;;;;;;5.38;1.48;;;;;;;17.48;59.29;101377.44;4987850;28;20073;-76
2022/06/16 21:49:06;;;;;;;4.20;1.15;;;;;;;17.37;59.09;101373.72;4988151;28;20082;-76
2022/06/16 21:52:18;;;;;;;3.80;1.42;;;;;;;17.50;59.61;101367.63;4988294;28;20189;-76
2022/06/16 21:55:25;;;;;;;4.00;1.13;;;;;;;17.46;60.84;101368.78;4990503;28;20101;-75
2022/06/16 21:58:29;;;;;;;4.90;1.23;;;;;;;17.28;60.73;101376.97;5008753;28;20056;-76
2022/06/16 22:01:33;;;;;;;4.07;1.45;;;;;;;17.17;60.90;101385.63;5010046;28;20561;-76
2022/06/16 22:04:36;;;;;;;5.15;1.77;;;;;;;17.18;61.12;101381.19;5009802;28;20255;-76
2022/06/16 22:07:39;;;;;;;5.47;1.80;;;;;;;17.15;60.82;101387.53;5009301;28;20116;-75
2022/06/16 22:12:20;;;;;;;3.63;1.10;;;;;;;17.14;60.61;101404.34;5009011;28;20572;-75
2022/06/16 22:14:07;;;;;;;4.97;1.30;;;;;;;17.07;61.07;101394.25;5009913;28;20111;-76
2022/06/16 22:17:23;;;;;;;4.80;1.40;;;;;;;16.91;62.02;101389.13;5008924;28;20462;-76
2022/06/16 22:20:31;;;;;;;4.10;1.65;;;;;;;16.96;62.80;101398.44;5009533;28;20084;-75
2022/06/16 22:23:37;;;;;;;5.75;1.92;;;;;;;17.05;62.29;101398.81;5009556;28;20052;-75
2022/06/16 22:26:41;;;;;;;4.88;1.75;;;;;;;16.92;62.54;101404.03;5009490;28;20068;-74
2022/06/16 22:29:45;;;;;;;5.53;1.65;;;;;;;16.82;63.16;101405.59;5007730;28;20072;-75
2022/06/16 22:32:49;;;;;;;3.38;1.33;;;;;;;16.65;63.00;101407.47;5008135;28;20045;-74
2022/06/16 22:35:53;;;;;;;6.80;1.77;;;;;;;16.62;62.81;101420.88;5007908;28;20505;-75
2022/06/16 22:38:57;;;;;;;5.57;1.77;;;;;;;16.55;63.20;101416.91;5007812;28;20542;-74
2022/06/16 22:42:01;;;;;;;6.10;1.85;;;;;;;16.60;63.25;101409.56;4989145;28;20097;-74
2022/06/16 22:45:08;;;;;;;3.25;1.50;;;;;;;16.49;63.98;101417.31;4977198;28;20115;-74
2022/06/16 22:48:36;;;;;;;3.80;1.70;;;;;;;16.40;64.03;101423.16;4988699;28;20077;-74
2022/06/16 22:51:39;;;;;;;4.45;1.67;;;;;;;16.38;63.49;101420.63;4987948;28;20053;-73
2022/06/16 22:58:09;;;;;;;4.70;1.70;;;;;;;16.25;63.99;101427.63;5008247;28;20046;-75
2022/06/16 23:01:17;;;;;;;3.67;1.35;;;;;;;16.16;64.25;101430.81;5007295;28;20044;-75
2022/06/16 23:04:20;;;;;;;3.35;1.25;;;;;;;16.12;65.00;101434.59;5007972;28;20057;-75
2022/06/16 23:07:27;;;;;;;5.78;1.70;;;;;;;16.09;64.83;101440.06;5007397;28;20045;-75
2022/06/16 23:10:31;;;;;;;5.85;1.88;;;;;;;15.95;64.58;101441.75;4987500;28;20040;-76
2022/06/16 23:13:34;;;;;;;5.60;1.30;;;;;;;15.81;64.70;101447.81;4987994;28;20104;-75
2022/06/16 23:16:39;;;;;;;5.28;1.50;;;;;;;15.71;65.31;101445.84;4987689;28;20057;-75
2022/06/16 23:19:43;;;;;;;4.93;1.42;;;;;;;15.80;65.31;101455.84;4988374;28;20092;-75
2022/06/16 23:22:47;;;;;;;4.30;1.45;;;;;;;15.70;66.01;101441.50;4994953;28;20057;-75
2022/06/16 23:25:51;;;;;;;2.63;1.30;;;;;;;15.64;65.97;101455.03;5007373;28;20529;-76
2022/06/16 23:28:58;;;;;;;3.13;1.23;;;;;;;15.54;66.06;101445.00;5007319;28;20041;-74
2022/06/16 23:32:01;;;;;;;3.38;1.30;;;;;;;15.57;65.96;101450.09;5006518;28;20517;-76
2022/06/16 23:35:08;;;;;;;8.10;1.55;;;;;;;15.55;66.42;101445.84;5008577;28;20575;-75
2022/06/16 23:38:25;;;;;;;3.50;1.48;;;;;;;15.32;67.16;101455.09;5010880;28;20133;-76
2022/06/16 23:41:28;;;;;;;5.95;1.40;;;;;;;15.30;67.20;101456.97;5006646;28;20053;-76
2022/06/16 23:44:31;;;;;;;3.97;1.73;;;;;;;15.15;66.69;101449.91;5010579;28;20110;-76
2022/06/16 23:51:01;;;;;;;4.88;1.65;;;;;;;15.07;68.12;101455.63;5006003;28;20097;-75
2022/06/16 23:54:11;;;;;;;3.63;1.80;;;;;;;14.98;68.00;101457.00;4991544;28;20129;-76
2022/06/16 23:57:14;;;;;;;2.80;1.20;;;;;;;14.95;67.60;101456.31;4991438;28;20053;-76
